sensor_id;sensor_type;location;lat;lon;timestamp;P1;durP1;ratioP1;P2;durP2;ratioP2
23080;SDS011;11708;50.570;8.532;2023-02-15T00:01:44;38.20;;;14.25;;
23080;SDS011;11708;50.570;8.532;2023-02-15T00:04:12;41.10;;;15.10;;
23080;SDS011;11708;50.570;8.532;2023-02-15T00:06:39;35.88;;;15.00;;
23080;SDS011;11708;50.570;8.532;2023-02-15T00:09:05;38.78;;;15.75;;
23080;SDS011;11708;50.570;8.532;2023-02-15T00:11:30;35.10;;;15.48;;
23080;SDS011;11708;50.570;8.532;2023-02-15T00:14:05;38.90;;;14.82;;
23080;SDS011;11708;50.570;8.532;2023-02-15T00:16:34;39.53;;;15.30;;
23080;SDS011;11708;50.570;8.532;2023-02-15T00:19:00;38.25;;;15.13;;
23080;SDS011;11708;50.570;8.532;2023-02-15T00:21:27;35.33;;;13.68;;
23080;SDS011;11708;50.570;8.532;2023-02-15T00:23:55;37.03;;;14.63;;
23080;SDS011;11708;50.570;8.532;2023-02-15T00:26:21;40.95;;;13.93;;
23080;SDS011;11708;50.570;8.532;2023-02-15T00:28:46;39.45;;;14.32;;
23080;SDS011;11708;50.570;8.532;2023-02-15T00:31:12;40.90;;;14.32;;
23080;SDS011;11708;50.570;8.532;2023-02-15T00:33:38;36.10;;;13.05;;
23080;SDS011;11708;50.570;8.532;2023-02-15T00:36:05;31.65;;;13.05;;
23080;SDS011;11708;50.570;8.532;2023-02-15T00:38:34;38.15;;;12.65;;
23080;SDS011;11708;50.570;8.532;2023-02-15T00:41:00;34.13;;;13.52;;
23080;SDS011;11708;50.570;8.532;2023-02-15T00:43:29;32.78;;;12.75;;
23080;SDS011;11708;50.570;8.532;2023-02-15T00:45:55;36.22;;;13.68;;
23080;SDS011;11708;50.570;8.532;2023-02-15T00:48:21;31.60;;;13.23;;
23080;SDS011;11708;50.570;8.532;2023-02-15T00:50:52;33.83;;;14.10;;
23080;SDS011;11708;50.570;8.532;2023-02-15T00:53:19;33.28;;;12.27;;
23080;SDS011;11708;50.570;8.532;2023-02-15T00:55:45;33.10;;;12.55;;
23080;SDS011;11708;50.570;8.532;2023-02-15T00:58:11;30.08;;;11.63;;
23080;SDS011;11708;50.570;8.532;2023-02-15T01:00:38;56.30;;;13.98;;
23080;SDS011;11708;50.570;8.532;2023-02-15T01:03:05;28.58;;;12.48;;
23080;SDS011;11708;50.570;8.532;2023-02-15T01:05:30;32.55;;;12.60;;
23080;SDS011;11708;50.570;8.532;2023-02-15T01:07:57;42.28;;;12.90;;
23080;SDS011;11708;50.570;8.532;2023-02-15T01:10:23;32.60;;;11.68;;
23080;SDS011;11708;50.570;8.532;2023-02-15T01:12:52;32.67;;;12.85;;
23080;SDS011;11708;50.570;8.532;2023-02-15T01:15:18;41.17;;;13.02;;
23080;SDS011;11708;50.570;8.532;2023-02-15T01:17:44;34.35;;;11.23;;
23080;SDS011;11708;50.570;8.532;2023-02-15T01:20:16;31.42;;;11.45;;
23080;SDS011;11708;50.570;8.532;2023-02-15T01:22:42;29.48;;;11.65;;
23080;SDS011;11708;50.570;8.532;2023-02-15T01:25:07;33.42;;;13.00;;
23080;SDS011;11708;50.570;8.532;2023-02-15T01:27:33;31.15;;;11.88;;
23080;SDS011;11708;50.570;8.532;2023-02-15T01:29:58;31.00;;;11.88;;
23080;SDS011;11708;50.570;8.532;2023-02-15T01:32:24;36.58;;;12.05;;
23080;SDS011;11708;50.570;8.532;2023-02-15T01:34:49;32.10;;;12.35;;
23080;SDS011;11708;50.570;8.532;2023-02-15T01:37:15;31.95;;;12.57;;
23080;SDS011;11708;50.570;8.532;2023-02-15T01:39:40;30.15;;;12.27;;
23080;SDS011;11708;50.570;8.532;2023-02-15T01:42:09;33.67;;;12.48;;
23080;SDS011;11708;50.570;8.532;2023-02-15T01:44:49;30.15;;;12.50;;
23080;SDS011;11708;50.570;8.532;2023-02-15T01:47:18;29.63;;;11.68;;
23080;SDS011;11708;50.570;8.532;2023-02-15T01:50:01;31.83;;;11.60;;
23080;SDS011;11708;50.570;8.532;2023-02-15T01:52:34;28.98;;;12.30;;
23080;SDS011;11708;50.570;8.532;2023-02-15T01:55:04;30.50;;;12.10;;
23080;SDS011;11708;50.570;8.532;2023-02-15T01:57:31;30.60;;;11.30;;
23080;SDS011;11708;50.570;8.532;2023-02-15T01:59:58;32.42;;;11.77;;
23080;SDS011;11708;50.570;8.532;2023-02-15T02:02:27;31.17;;;11.73;;
23080;SDS011;11708;50.570;8.532;2023-02-15T02:04:54;28.13;;;12.20;;
23080;SDS011;11708;50.570;8.532;2023-02-15T02:07:26;31.17;;;12.38;;
23080;SDS011;11708;50.570;8.532;2023-02-15T02:09:53;24.50;;;11.02;;
23080;SDS011;11708;50.570;8.532;2023-02-15T02:12:19;31.42;;;13.10;;
23080;SDS011;11708;50.570;8.532;2023-02-15T02:14:47;31.92;;;12.43;;
23080;SDS011;11708;50.570;8.532;2023-02-15T02:17:16;25.80;;;10.70;;
23080;SDS011;11708;50.570;8.532;2023-02-15T02:19:52;33.63;;;12.30;;
23080;SDS011;11708;50.570;8.532;2023-02-15T02:30:55;31.50;;;11.93;;
23080;SDS011;11708;50.570;8.532;2023-02-15T02:42:02;30.27;;;12.55;;
23080;SDS011;11708;50.570;8.532;2023-02-15T02:44:46;29.08;;;11.30;;
23080;SDS011;11708;50.570;8.532;2023-02-15T02:49:56;25.85;;;11.02;;
23080;SDS011;11708;50.570;8.532;2023-02-15T02:52:42;34.22;;;12.77;;
23080;SDS011;11708;50.570;8.532;2023-02-15T02:55:13;26.52;;;10.77;;
23080;SDS011;11708;50.570;8.532;2023-02-15T02:57:46;27.05;;;11.90;;
23080;SDS011;11708;50.570;8.532;2023-02-15T03:00:20;27.95;;;10.65;;
23080;SDS011;11708;50.570;8.532;2023-02-15T03:02:49;31.65;;;12.45;;
23080;SDS011;11708;50.570;8.532;2023-02-15T03:05:20;29.75;;;10.68;;
23080;SDS011;11708;50.570;8.532;2023-02-15T03:07:50;26.50;;;10.82;;
23080;SDS011;11708;50.570;8.532;2023-02-15T03:10:19;24.67;;;10.55;;
23080;SDS011;11708;50.570;8.532;2023-02-15T03:12:47;27.45;;;10.93;;
23080;SDS011;11708;50.570;8.532;2023-02-15T03:15:17;28.58;;;11.10;;
23080;SDS011;11708;50.570;8.532;2023-02-15T03:17:48;29.35;;;11.73;;
23080;SDS011;11708;50.570;8.532;2023-02-15T03:20:22;21.95;;;9.93;;
23080;SDS011;11708;50.570;8.532;2023-02-15T03:22:52;30.90;;;11.88;;
23080;SDS011;11708;50.570;8.532;2023-02-15T03:25:25;26.50;;;11.70;;
23080;SDS011;11708;50.570;8.532;2023-02-15T03:27:58;26.30;;;11.23;;
23080;SDS011;11708;50.570;8.532;2023-02-15T03:30:26;26.63;;;11.35;;
23080;SDS011;11708;50.570;8.532;2023-02-15T03:32:54;30.88;;;12.65;;
23080;SDS011;11708;50.570;8.532;2023-02-15T03:35:24;28.70;;;11.57;;
23080;SDS011;11708;50.570;8.532;2023-02-15T03:37:56;30.08;;;12.45;;
23080;SDS011;11708;50.570;8.532;2023-02-15T03:45:46;29.35;;;12.05;;
23080;SDS011;11708;50.570;8.532;2023-02-15T03:50:59;30.98;;;12.57;;
23080;SDS011;11708;50.570;8.532;2023-02-15T03:53:48;32.67;;;11.90;;
23080;SDS011;11708;50.570;8.532;2023-02-15T03:56:15;29.85;;;12.23;;
23080;SDS011;11708;50.570;8.532;2023-02-15T03:58:40;30.27;;;11.15;;
23080;SDS011;11708;50.570;8.532;2023-02-15T04:01:26;28.25;;;11.35;;
23080;SDS011;11708;50.570;8.532;2023-02-15T04:04:18;25.90;;;10.68;;
23080;SDS011;11708;50.570;8.532;2023-02-15T04:06:46;32.65;;;11.10;;
23080;SDS011;11708;50.570;8.532;2023-02-15T04:09:12;33.53;;;12.85;;
23080;SDS011;11708;50.570;8.532;2023-02-15T04:11:56;29.85;;;11.60;;
23080;SDS011;11708;50.570;8.532;2023-02-15T04:14:21;34.35;;;11.90;;
23080;SDS011;11708;50.570;8.532;2023-02-15T04:17:06;29.45;;;11.27;;
23080;SDS011;11708;50.570;8.532;2023-02-15T04:19:32;27.52;;;10.70;;
23080;SDS011;11708;50.570;8.532;2023-02-15T04:22:16;29.65;;;10.40;;
23080;SDS011;11708;50.570;8.532;2023-02-15T04:25:00;28.77;;;10.90;;
23080;SDS011;11708;50.570;8.532;2023-02-15T04:27:38;27.85;;;11.07;;
23080;SDS011;11708;50.570;8.532;2023-02-15T04:30:05;27.35;;;10.57;;
23080;SDS011;11708;50.570;8.532;2023-02-15T04:32:31;29.98;;;11.20;;
23080;SDS011;11708;50.570;8.532;2023-02-15T04:34:57;32.80;;;10.70;;
23080;SDS011;11708;50.570;8.532;2023-02-15T04:37:23;30.55;;;12.18;;
23080;SDS011;11708;50.570;8.532;2023-02-15T04:39:48;33.58;;;11.38;;
23080;SDS011;11708;50.570;8.532;2023-02-15T04:42:14;33.15;;;12.98;;
23080;SDS011;11708;50.570;8.532;2023-02-15T04:44:40;33.72;;;12.43;;
23080;SDS011;11708;50.570;8.532;2023-02-15T04:47:06;33.90;;;13.13;;
23080;SDS011;11708;50.570;8.532;2023-02-15T04:49:31;31.08;;;12.73;;
23080;SDS011;11708;50.570;8.532;2023-02-15T04:51:57;29.27;;;10.60;;
23080;SDS011;11708;50.570;8.532;2023-02-15T04:54:22;34.85;;;12.82;;
23080;SDS011;11708;50.570;8.532;2023-02-15T04:56:48;32.78;;;11.77;;
23080;SDS011;11708;50.570;8.532;2023-02-15T04:59:13;33.78;;;12.75;;
23080;SDS011;11708;50.570;8.532;2023-02-15T05:01:39;41.22;;;13.50;;
23080;SDS011;11708;50.570;8.532;2023-02-15T05:04:05;41.85;;;14.20;;
23080;SDS011;11708;50.570;8.532;2023-02-15T05:06:30;32.70;;;11.48;;
23080;SDS011;11708;50.570;8.532;2023-02-15T05:08:56;36.65;;;13.52;;
23080;SDS011;11708;50.570;8.532;2023-02-15T05:11:23;34.33;;;12.13;;
23080;SDS011;11708;50.570;8.532;2023-02-15T05:13:49;39.70;;;14.48;;
23080;SDS011;11708;50.570;8.532;2023-02-15T05:16:15;35.17;;;14.15;;
23080;SDS011;11708;50.570;8.532;2023-02-15T05:18:41;37.42;;;14.02;;
23080;SDS011;11708;50.570;8.532;2023-02-15T05:21:07;34.05;;;12.77;;
23080;SDS011;11708;50.570;8.532;2023-02-15T05:23:32;40.15;;;14.75;;
23080;SDS011;11708;50.570;8.532;2023-02-15T05:25:58;37.88;;;14.48;;
23080;SDS011;11708;50.570;8.532;2023-02-15T05:28:42;35.92;;;13.77;;
23080;SDS011;11708;50.570;8.532;2023-02-15T05:33:41;42.20;;;14.10;;
23080;SDS011;11708;50.570;8.532;2023-02-15T05:36:07;34.58;;;13.55;;
23080;SDS011;11708;50.570;8.532;2023-02-15T05:38:33;40.63;;;14.63;;
23080;SDS011;11708;50.570;8.532;2023-02-15T05:40:59;44.25;;;15.90;;
23080;SDS011;11708;50.570;8.532;2023-02-15T05:43:25;38.35;;;14.25;;
23080;SDS011;11708;50.570;8.532;2023-02-15T05:45:51;40.15;;;14.55;;
23080;SDS011;11708;50.570;8.532;2023-02-15T05:48:19;42.00;;;15.55;;
23080;SDS011;11708;50.570;8.532;2023-02-15T05:50:46;44.67;;;15.48;;
23080;SDS011;11708;50.570;8.532;2023-02-15T05:53:11;42.95;;;15.63;;
23080;SDS011;11708;50.570;8.532;2023-02-15T05:55:38;38.13;;;14.32;;
23080;SDS011;11708;50.570;8.532;2023-02-15T05:58:04;41.42;;;15.82;;
23080;SDS011;11708;50.570;8.532;2023-02-15T06:00:30;43.05;;;16.33;;
23080;SDS011;11708;50.570;8.532;2023-02-15T06:02:56;37.83;;;13.82;;
23080;SDS011;11708;50.570;8.532;2023-02-15T06:05:21;44.20;;;16.92;;
23080;SDS011;11708;50.570;8.532;2023-02-15T06:07:47;39.83;;;14.65;;
23080;SDS011;11708;50.570;8.532;2023-02-15T06:10:13;45.10;;;16.13;;
23080;SDS011;11708;50.570;8.532;2023-02-15T06:12:39;43.33;;;16.25;;
23080;SDS011;11708;50.570;8.532;2023-02-15T06:15:04;43.40;;;16.88;;
23080;SDS011;11708;50.570;8.532;2023-02-15T06:17:30;51.00;;;17.45;;
23080;SDS011;11708;50.570;8.532;2023-02-15T06:19:56;39.63;;;15.38;;
23080;SDS011;11708;50.570;8.532;2023-02-15T06:22:22;44.05;;;16.42;;
23080;SDS011;11708;50.570;8.532;2023-02-15T06:24:47;39.72;;;16.75;;
23080;SDS011;11708;50.570;8.532;2023-02-15T06:27:13;44.63;;;16.80;;
23080;SDS011;11708;50.570;8.532;2023-02-15T06:29:38;40.92;;;15.18;;
23080;SDS011;11708;50.570;8.532;2023-02-15T06:32:04;50.80;;;18.65;;
23080;SDS011;11708;50.570;8.532;2023-02-15T06:34:30;49.47;;;17.42;;
23080;SDS011;11708;50.570;8.532;2023-02-15T06:36:56;44.67;;;16.90;;
23080;SDS011;11708;50.570;8.532;2023-02-15T06:39:21;53.63;;;17.70;;
23080;SDS011;11708;50.570;8.532;2023-02-15T06:41:47;52.03;;;17.85;;
23080;SDS011;11708;50.570;8.532;2023-02-15T06:44:13;42.13;;;16.17;;
23080;SDS011;11708;50.570;8.532;2023-02-15T06:46:38;55.75;;;18.65;;
23080;SDS011;11708;50.570;8.532;2023-02-15T06:49:04;53.92;;;17.60;;
23080;SDS011;11708;50.570;8.532;2023-02-15T06:51:30;51.17;;;18.80;;
23080;SDS011;11708;50.570;8.532;2023-02-15T06:53:55;41.38;;;16.85;;
23080;SDS011;11708;50.570;8.532;2023-02-15T06:56:21;51.25;;;18.48;;
23080;SDS011;11708;50.570;8.532;2023-02-15T06:58:46;50.58;;;16.75;;
23080;SDS011;11708;50.570;8.532;2023-02-15T07:01:14;42.65;;;16.50;;
23080;SDS011;11708;50.570;8.532;2023-02-15T07:03:40;50.78;;;17.35;;
23080;SDS011;11708;50.570;8.532;2023-02-15T07:06:05;51.55;;;17.13;;
23080;SDS011;11708;50.570;8.532;2023-02-15T07:08:33;44.35;;;16.85;;
23080;SDS011;11708;50.570;8.532;2023-02-15T07:10:59;39.95;;;16.08;;
23080;SDS011;11708;50.570;8.532;2023-02-15T07:13:45;43.60;;;16.75;;
23080;SDS011;11708;50.570;8.532;2023-02-15T07:16:11;49.83;;;17.88;;
23080;SDS011;11708;50.570;8.532;2023-02-15T07:18:37;48.55;;;17.20;;
23080;SDS011;11708;50.570;8.532;2023-02-15T07:21:04;51.97;;;17.73;;
23080;SDS011;11708;50.570;8.532;2023-02-15T07:23:32;42.45;;;16.17;;
23080;SDS011;11708;50.570;8.532;2023-02-15T07:25:59;42.10;;;16.48;;
23080;SDS011;11708;50.570;8.532;2023-02-15T07:28:26;50.28;;;16.38;;
23080;SDS011;11708;50.570;8.532;2023-02-15T07:30:53;45.38;;;17.63;;
23080;SDS011;11708;50.570;8.532;2023-02-15T07:33:18;44.17;;;16.42;;
23080;SDS011;11708;50.570;8.532;2023-02-15T07:35:55;42.58;;;16.52;;
23080;SDS011;11708;50.570;8.532;2023-02-15T07:38:23;39.08;;;15.02;;
23080;SDS011;11708;50.570;8.532;2023-02-15T07:40:49;43.28;;;15.95;;
23080;SDS011;11708;50.570;8.532;2023-02-15T07:43:15;43.53;;;16.25;;
23080;SDS011;11708;50.570;8.532;2023-02-15T07:45:40;40.38;;;15.02;;
23080;SDS011;11708;50.570;8.532;2023-02-15T07:48:06;45.15;;;16.42;;
23080;SDS011;11708;50.570;8.532;2023-02-15T07:50:32;46.40;;;15.40;;
23080;SDS011;11708;50.570;8.532;2023-02-15T07:52:58;57.97;;;18.63;;
23080;SDS011;11708;50.570;8.532;2023-02-15T07:55:25;46.90;;;16.90;;
23080;SDS011;11708;50.570;8.532;2023-02-15T07:57:51;46.70;;;16.98;;
23080;SDS011;11708;50.570;8.532;2023-02-15T08:00:19;49.35;;;17.08;;
23080;SDS011;11708;50.570;8.532;2023-02-15T08:02:48;44.88;;;17.63;;
23080;SDS011;11708;50.570;8.532;2023-02-15T08:05:33;68.93;;;25.13;;
23080;SDS011;11708;50.570;8.532;2023-02-15T08:07:58;68.78;;;26.88;;
23080;SDS011;11708;50.570;8.532;2023-02-15T08:10:24;54.05;;;18.38;;
23080;SDS011;11708;50.570;8.532;2023-02-15T08:13:09;46.78;;;17.35;;
23080;SDS011;11708;50.570;8.532;2023-02-15T08:15:35;50.08;;;18.33;;
23080;SDS011;11708;50.570;8.532;2023-02-15T08:18:01;48.15;;;18.50;;
23080;SDS011;11708;50.570;8.532;2023-02-15T08:20:26;49.15;;;17.63;;
23080;SDS011;11708;50.570;8.532;2023-02-15T08:22:52;43.17;;;16.90;;
23080;SDS011;11708;50.570;8.532;2023-02-15T08:25:18;44.97;;;17.02;;
23080;SDS011;11708;50.570;8.532;2023-02-15T08:27:43;44.17;;;16.80;;
23080;SDS011;11708;50.570;8.532;2023-02-15T08:30:09;43.72;;;16.40;;
23080;SDS011;11708;50.570;8.532;2023-02-15T08:32:35;39.60;;;14.38;;
23080;SDS011;11708;50.570;8.532;2023-02-15T08:35:01;47.83;;;17.20;;
23080;SDS011;11708;50.570;8.532;2023-02-15T08:37:27;50.28;;;17.17;;
23080;SDS011;11708;50.570;8.532;2023-02-15T08:39:52;48.75;;;17.00;;
23080;SDS011;11708;50.570;8.532;2023-02-15T08:42:18;51.97;;;18.65;;
23080;SDS011;11708;50.570;8.532;2023-02-15T08:44:45;59.55;;;18.70;;
23080;SDS011;11708;50.570;8.532;2023-02-15T08:47:11;48.40;;;17.23;;
23080;SDS011;11708;50.570;8.532;2023-02-15T08:49:37;50.38;;;17.05;;
23080;SDS011;11708;50.570;8.532;2023-02-15T08:52:02;47.72;;;17.58;;
23080;SDS011;11708;50.570;8.532;2023-02-15T08:54:28;85.82;;;32.13;;
23080;SDS011;11708;50.570;8.532;2023-02-15T08:56:53;47.95;;;17.98;;
23080;SDS011;11708;50.570;8.532;2023-02-15T08:59:20;54.08;;;18.70;;
23080;SDS011;11708;50.570;8.532;2023-02-15T09:01:48;50.90;;;17.52;;
23080;SDS011;11708;50.570;8.532;2023-02-15T09:04:16;50.45;;;17.77;;
23080;SDS011;11708;50.570;8.532;2023-02-15T09:06:42;46.88;;;17.15;;
23080;SDS011;11708;50.570;8.532;2023-02-15T09:09:09;51.08;;;17.25;;
23080;SDS011;11708;50.570;8.532;2023-02-15T09:11:36;53.50;;;17.08;;
23080;SDS011;11708;50.570;8.532;2023-02-15T09:14:08;47.10;;;16.92;;
23080;SDS011;11708;50.570;8.532;2023-02-15T09:16:38;46.63;;;16.38;;
23080;SDS011;11708;50.570;8.532;2023-02-15T09:19:05;46.08;;;17.67;;
23080;SDS011;11708;50.570;8.532;2023-02-15T09:21:33;46.60;;;17.27;;
23080;SDS011;11708;50.570;8.532;2023-02-15T09:24:04;49.05;;;17.65;;
23080;SDS011;11708;50.570;8.532;2023-02-15T09:26:31;52.13;;;18.73;;
23080;SDS011;11708;50.570;8.532;2023-02-15T09:29:00;50.72;;;17.70;;
23080;SDS011;11708;50.570;8.532;2023-02-15T09:31:27;43.20;;;17.63;;
23080;SDS011;11708;50.570;8.532;2023-02-15T09:33:54;50.50;;;18.40;;
23080;SDS011;11708;50.570;8.532;2023-02-15T09:38:53;45.47;;;17.85;;
23080;SDS011;11708;50.570;8.532;2023-02-15T09:47:08;45.60;;;17.42;;
23080;SDS011;11708;50.570;8.532;2023-02-15T09:55:36;53.03;;;17.83;;
23080;SDS011;11708;50.570;8.532;2023-02-15T10:14:34;57.22;;;20.08;;
23080;SDS011;11708;50.570;8.532;2023-02-15T10:19:59;47.28;;;17.88;;
23080;SDS011;11708;50.570;8.532;2023-02-15T10:25:41;49.95;;;17.90;;
23080;SDS011;11708;50.570;8.532;2023-02-15T10:28:50;43.67;;;17.73;;
23080;SDS011;11708;50.570;8.532;2023-02-15T10:31:31;44.83;;;16.55;;
23080;SDS011;11708;50.570;8.532;2023-02-15T10:36:48;50.53;;;17.85;;
23080;SDS011;11708;50.570;8.532;2023-02-15T10:53:25;43.42;;;17.00;;
23080;SDS011;11708;50.570;8.532;2023-02-15T11:07:27;44.53;;;18.05;;
23080;SDS011;11708;50.570;8.532;2023-02-15T11:10:05;45.25;;;17.33;;
23080;SDS011;11708;50.570;8.532;2023-02-15T11:12:48;49.10;;;17.60;;
23080;SDS011;11708;50.570;8.532;2023-02-15T11:15:30;45.58;;;17.58;;
23080;SDS011;11708;50.570;8.532;2023-02-15T11:18:13;40.70;;;15.95;;
23080;SDS011;11708;50.570;8.532;2023-02-15T11:21:22;45.35;;;17.60;;
23080;SDS011;11708;50.570;8.532;2023-02-15T11:23:53;37.58;;;15.25;;
23080;SDS011;11708;50.570;8.532;2023-02-15T11:29:12;38.00;;;16.90;;
23080;SDS011;11708;50.570;8.532;2023-02-15T11:31:46;41.38;;;17.55;;
23080;SDS011;11708;50.570;8.532;2023-02-15T11:34:18;36.42;;;16.20;;
23080;SDS011;11708;50.570;8.532;2023-02-15T11:36:45;46.55;;;17.95;;
23080;SDS011;11708;50.570;8.532;2023-02-15T11:39:15;35.67;;;16.13;;
23080;SDS011;11708;50.570;8.532;2023-02-15T11:41:52;45.58;;;17.13;;
23080;SDS011;11708;50.570;8.532;2023-02-15T11:44:27;46.10;;;18.30;;
23080;SDS011;11708;50.570;8.532;2023-02-15T11:47:19;42.88;;;17.15;;
23080;SDS011;11708;50.570;8.532;2023-02-15T11:49:44;45.38;;;18.05;;
23080;SDS011;11708;50.570;8.532;2023-02-15T11:52:12;41.42;;;17.00;;
23080;SDS011;11708;50.570;8.532;2023-02-15T11:54:44;37.78;;;16.60;;
23080;SDS011;11708;50.570;8.532;2023-02-15T12:02:30;43.00;;;17.52;;
23080;SDS011;11708;50.570;8.532;2023-02-15T12:05:03;40.58;;;17.55;;
23080;SDS011;11708;50.570;8.532;2023-02-15T12:07:35;37.08;;;16.75;;
23080;SDS011;11708;50.570;8.532;2023-02-15T12:12:41;42.70;;;17.80;;
23080;SDS011;11708;50.570;8.532;2023-02-15T12:15:07;44.80;;;20.63;;
23080;SDS011;11708;50.570;8.532;2023-02-15T12:17:39;45.55;;;19.55;;
23080;SDS011;11708;50.570;8.532;2023-02-15T12:22:38;38.42;;;16.90;;
23080;SDS011;11708;50.570;8.532;2023-02-15T12:25:21;43.42;;;17.75;;
23080;SDS011;11708;50.570;8.532;2023-02-15T12:28:03;41.55;;;18.00;;
23080;SDS011;11708;50.570;8.532;2023-02-15T12:30:43;39.60;;;16.90;;
23080;SDS011;11708;50.570;8.532;2023-02-15T12:33:26;37.50;;;17.25;;
23080;SDS011;11708;50.570;8.532;2023-02-15T12:41:37;38.97;;;16.77;;
23080;SDS011;11708;50.570;8.532;2023-02-15T12:49:41;35.38;;;16.30;;
23080;SDS011;11708;50.570;8.532;2023-02-15T12:54:47;36.92;;;16.52;;
23080;SDS011;11708;50.570;8.532;2023-02-15T13:00:00;33.50;;;16.13;;
23080;SDS011;11708;50.570;8.532;2023-02-15T13:05:24;33.08;;;15.95;;
23080;SDS011;11708;50.570;8.532;2023-02-15T13:07:58;34.30;;;17.33;;
23080;SDS011;11708;50.570;8.532;2023-02-15T13:11:15;35.25;;;17.58;;
23080;SDS011;11708;50.570;8.532;2023-02-15T13:13:36;58.35;;;24.58;;
23080;SDS011;11708;50.570;8.532;2023-02-15T13:16:19;37.78;;;16.55;;
23080;SDS011;11708;50.570;8.532;2023-02-15T13:18:53;33.53;;;16.42;;
23080;SDS011;11708;50.570;8.532;2023-02-15T13:21:42;32.72;;;14.38;;
23080;SDS011;11708;50.570;8.532;2023-02-15T13:24:13;31.20;;;15.73;;
23080;SDS011;11708;50.570;8.532;2023-02-15T13:26:43;35.28;;;16.05;;
23080;SDS011;11708;50.570;8.532;2023-02-15T13:29:15;31.73;;;14.45;;
23080;SDS011;11708;50.570;8.532;2023-02-15T13:31:46;33.78;;;14.68;;
23080;SDS011;11708;50.570;8.532;2023-02-15T13:34:28;37.10;;;16.10;;
23080;SDS011;11708;50.570;8.532;2023-02-15T13:37:06;33.83;;;15.18;;
23080;SDS011;11708;50.570;8.532;2023-02-15T13:39:48;34.25;;;15.68;;
23080;SDS011;11708;50.570;8.532;2023-02-15T13:42:25;34.92;;;15.05;;
23080;SDS011;11708;50.570;8.532;2023-02-15T13:45:28;33.20;;;15.80;;
23080;SDS011;11708;50.570;8.532;2023-02-15T13:53:44;37.85;;;15.65;;
23080;SDS011;11708;50.570;8.532;2023-02-15T13:59:15;36.15;;;16.25;;
23080;SDS011;11708;50.570;8.532;2023-02-15T14:07:22;35.53;;;16.08;;
23080;SDS011;11708;50.570;8.532;2023-02-15T14:15:12;40.17;;;17.33;;
23080;SDS011;11708;50.570;8.532;2023-02-15T14:17:58;36.45;;;15.73;;
23080;SDS011;11708;50.570;8.532;2023-02-15T14:21:02;40.63;;;17.48;;
23080;SDS011;11708;50.570;8.532;2023-02-15T14:23:46;34.10;;;16.48;;
23080;SDS011;11708;50.570;8.532;2023-02-15T14:26:23;42.42;;;18.55;;
23080;SDS011;11708;50.570;8.532;2023-02-15T14:31:58;35.33;;;15.90;;
23080;SDS011;11708;50.570;8.532;2023-02-15T14:43:22;38.42;;;17.48;;
23080;SDS011;11708;50.570;8.532;2023-02-15T14:45:58;36.35;;;16.80;;
23080;SDS011;11708;50.570;8.532;2023-02-15T14:51:10;36.53;;;17.73;;
23080;SDS011;11708;50.570;8.532;2023-02-15T14:53:55;42.13;;;17.35;;
23080;SDS011;11708;50.570;8.532;2023-02-15T14:56:21;38.83;;;17.63;;
23080;SDS011;11708;50.570;8.532;2023-02-15T15:01:17;42.20;;;17.80;;
23080;SDS011;11708;50.570;8.532;2023-02-15T15:03:51;34.78;;;16.77;;
23080;SDS011;11708;50.570;8.532;2023-02-15T15:06:24;41.95;;;16.92;;
23080;SDS011;11708;50.570;8.532;2023-02-15T15:09:28;41.53;;;17.45;;
23080;SDS011;11708;50.570;8.532;2023-02-15T15:14:49;42.10;;;18.77;;
23080;SDS011;11708;50.570;8.532;2023-02-15T15:22:26;36.08;;;16.45;;
23080;SDS011;11708;50.570;8.532;2023-02-15T15:24:57;35.10;;;16.50;;
23080;SDS011;11708;50.570;8.532;2023-02-15T15:49:31;43.50;;;19.77;;
23080;SDS011;11708;50.570;8.532;2023-02-15T15:52:00;39.03;;;19.13;;
23080;SDS011;11708;50.570;8.532;2023-02-15T15:54:27;47.50;;;18.05;;
23080;SDS011;11708;50.570;8.532;2023-02-15T15:56:54;42.80;;;18.45;;
23080;SDS011;11708;50.570;8.532;2023-02-15T15:59:26;46.95;;;19.60;;
23080;SDS011;11708;50.570;8.532;2023-02-15T16:01:54;44.85;;;19.33;;
23080;SDS011;11708;50.570;8.532;2023-02-15T16:06:54;50.03;;;20.92;;
23080;SDS011;11708;50.570;8.532;2023-02-15T16:09:22;41.40;;;19.52;;
23080;SDS011;11708;50.570;8.532;2023-02-15T16:11:50;47.10;;;19.63;;
23080;SDS011;11708;50.570;8.532;2023-02-15T16:14:30;47.20;;;20.23;;
23080;SDS011;11708;50.570;8.532;2023-02-15T16:16:58;45.22;;;19.50;;
23080;SDS011;11708;50.570;8.532;2023-02-15T16:19:33;49.42;;;21.35;;
23080;SDS011;11708;50.570;8.532;2023-02-15T16:22:03;49.80;;;20.45;;
23080;SDS011;11708;50.570;8.532;2023-02-15T16:24:37;46.08;;;21.35;;
23080;SDS011;11708;50.570;8.532;2023-02-15T16:29:41;55.58;;;21.17;;
23080;SDS011;11708;50.570;8.532;2023-02-15T16:34:55;57.47;;;23.02;;
23080;SDS011;11708;50.570;8.532;2023-02-15T16:37:26;46.55;;;20.42;;
23080;SDS011;11708;50.570;8.532;2023-02-15T16:40:01;55.72;;;21.27;;
23080;SDS011;11708;50.570;8.532;2023-02-15T16:42:27;49.40;;;21.52;;
23080;SDS011;11708;50.570;8.532;2023-02-15T16:45:00;64.85;;;24.20;;
23080;SDS011;11708;50.570;8.532;2023-02-15T16:47:33;57.67;;;22.95;;
23080;SDS011;11708;50.570;8.532;2023-02-15T16:50:06;63.55;;;30.52;;
23080;SDS011;11708;50.570;8.532;2023-02-15T16:53:13;52.40;;;22.88;;
23080;SDS011;11708;50.570;8.532;2023-02-15T16:55:43;48.10;;;21.08;;
23080;SDS011;11708;50.570;8.532;2023-02-15T16:58:13;55.28;;;23.33;;
23080;SDS011;11708;50.570;8.532;2023-02-15T17:00:41;50.65;;;21.55;;
23080;SDS011;11708;50.570;8.532;2023-02-15T17:08:17;50.53;;;21.27;;
23080;SDS011;11708;50.570;8.532;2023-02-15T17:13:23;55.13;;;24.10;;
23080;SDS011;11708;50.570;8.532;2023-02-15T17:18:18;59.97;;;23.50;;
23080;SDS011;11708;50.570;8.532;2023-02-15T17:20:46;56.92;;;23.17;;
23080;SDS011;11708;50.570;8.532;2023-02-15T17:26:01;58.35;;;23.52;;
23080;SDS011;11708;50.570;8.532;2023-02-15T17:28:50;63.97;;;23.38;;
23080;SDS011;11708;50.570;8.532;2023-02-15T17:31:19;57.28;;;22.27;;
23080;SDS011;11708;50.570;8.532;2023-02-15T17:33:46;64.03;;;29.50;;
23080;SDS011;11708;50.570;8.532;2023-02-15T17:36:13;55.80;;;25.05;;
23080;SDS011;11708;50.570;8.532;2023-02-15T17:41:23;57.88;;;22.85;;
23080;SDS011;11708;50.570;8.532;2023-02-15T17:43:56;59.42;;;23.25;;
23080;SDS011;11708;50.570;8.532;2023-02-15T17:46:22;65.32;;;24.38;;
23080;SDS011;11708;50.570;8.532;2023-02-15T17:48:48;60.05;;;22.35;;
23080;SDS011;11708;50.570;8.532;2023-02-15T17:51:15;66.72;;;23.90;;
23080;SDS011;11708;50.570;8.532;2023-02-15T17:53:42;63.63;;;24.48;;
23080;SDS011;11708;50.570;8.532;2023-02-15T17:56:27;56.83;;;22.20;;
23080;SDS011;11708;50.570;8.532;2023-02-15T17:58:52;57.33;;;23.25;;
23080;SDS011;11708;50.570;8.532;2023-02-15T18:01:18;53.45;;;23.98;;
23080;SDS011;11708;50.570;8.532;2023-02-15T18:04:04;52.80;;;21.20;;
23080;SDS011;11708;50.570;8.532;2023-02-15T18:06:51;50.78;;;20.10;;
23080;SDS011;11708;50.570;8.532;2023-02-15T18:09:35;56.83;;;22.90;;
23080;SDS011;11708;50.570;8.532;2023-02-15T18:12:21;57.58;;;21.67;;
23080;SDS011;11708;50.570;8.532;2023-02-15T18:14:48;56.50;;;22.15;;
23080;SDS011;11708;50.570;8.532;2023-02-15T18:17:15;53.50;;;21.45;;
23080;SDS011;11708;50.570;8.532;2023-02-15T18:19:42;53.45;;;20.85;;